Time;durP1;ratioP1;P1;durP2;ratioP2;P2;SDS_P1;SDS_P2;PMS_P1;PMS_P2;Temp;Humidity;BMP_temperature;BMP_pressure;BME280_temperature;BME280_humidity;BME280_pressure;Samples;Min_cycle;Max_cycle;Signal;HPM_P1;HPM_P2
2023/10/04 00:00:50;;;;;;;11.80;3.00;;;;;;;;;;5032833;28;20575;-82
2023/10/04 00:03:18;;;;;;;16.50;3.33;;;;;;;;;;5033015;28;20438;-81
2023/10/04 00:05:46;;;;;;;6.03;3.00;;;;;;;;;;5033833;28;20476;-82
2023/10/04 00:08:12;;;;;;;8.80;4.10;;;;;;;;;;5033388;28;20472;-81
2023/10/04 00:10:39;;;;;;;8.10;3.47;;;;;;;;;;5033577;28;20973;-81
2023/10/04 00:13:06;;;;;;;7.97;3.80;;;;;;;;;;5032988;28;20423;-81
2023/10/04 00:15:32;;;;;;;7.37;3.30;;;;;;;;;;5032900;28;20460;-80
2023/10/04 00:17:58;;;;;;;12.10;3.63;;;;;;;;;;5034188;28;20437;-79
2023/10/04 00:20:31;;;;;;;11.17;4.00;;;;;;;;;;5033699;28;20423;-79
2023/10/04 00:22:59;;;;;;;8.87;3.27;;;;;;;;;;5033689;28;20431;-79
2023/10/04 00:25:28;;;;;;;5.83;3.47;;;;;;;;;;5033544;28;20435;-80
2023/10/04 00:27:56;;;;;;;12.03;3.90;;;;;;;;;;5032362;28;20534;-80
2023/10/04 00:30:26;;;;;;;4.17;3.17;;;;;;;;;;5032795;28;20427;-82
2023/10/04 00:32:53;;;;;;;13.43;4.77;;;;;;;;;;5033601;28;20928;-82
2023/10/04 00:35:19;;;;;;;10.60;4.27;;;;;;;;;;5031732;28;20806;-81
2023/10/04 00:37:47;;;;;;;10.13;3.03;;;;;;;;;;5033886;28;20423;-82
2023/10/04 00:40:21;;;;;;;12.47;3.73;;;;;;;;;;5033100;28;20891;-80
2023/10/04 00:42:49;;;;;;;7.80;3.10;;;;;;;;;;5032539;28;20441;-79
2023/10/04 00:45:15;;;;;;;9.60;2.90;;;;;;;;;;5032618;28;20435;-79
2023/10/04 00:47:43;;;;;;;10.27;3.00;;;;;;;;;;5034091;28;20501;-79
2023/10/04 00:50:15;;;;;;;9.73;3.47;;;;;;;;;;5032877;28;20455;-82
2023/10/04 00:52:46;;;;;;;6.60;4.57;;;;;;;;;;5034324;28;20441;-81
2023/10/04 00:55:13;;;;;;;7.30;4.20;;;;;;;;;;5031728;28;20832;-82
2023/10/04 00:57:41;;;;;;;4.10;3.03;;;;;;;;;;5033393;28;20909;-81
2023/10/04 01:00:10;;;;;;;10.07;3.17;;;;;;;;;;5033310;28;20412;-81
2023/10/04 01:02:37;;;;;;;5.73;2.87;;;;;;;;;;5033711;28;20419;-82
2023/10/04 01:05:04;;;;;;;9.90;3.50;;;;;;;;;;5032410;28;20436;-82
2023/10/04 01:07:31;;;;;;;5.93;3.67;;;;;;;;;;5032967;28;20994;-81
2023/10/04 01:09:58;;;;;;;10.23;3.33;;;;;;;;;;5033280;28;20518;-82
2023/10/04 01:12:24;;;;;;;10.70;3.50;;;;;;;;;;5032796;28;20473;-81
2023/10/04 01:14:53;;;;;;;9.00;3.23;;;;;;;;;;5033067;28;20834;-82
2023/10/04 01:17:20;;;;;;;6.60;2.60;;;;;;;;;;5033360;28;20501;-82
2023/10/04 01:19:46;;;;;;;5.90;2.50;;;;;;;;;;5034754;28;20427;-80
2023/10/04 01:22:15;;;;;;;10.73;3.80;;;;;;;;;;5035550;28;20510;-80
2023/10/04 01:24:41;;;;;;;5.13;2.70;;;;;;;;;;5037206;28;20970;-81
2023/10/04 01:27:08;;;;;;;7.40;2.60;;;;;;;;;;5037825;28;20481;-81
2023/10/04 01:29:38;;;;;;;4.53;3.10;;;;;;;;;;5037320;28;20422;-79
2023/10/04 01:32:05;;;;;;;6.10;2.97;;;;;;;;;;5035389;28;20476;-80
2023/10/04 01:34:31;;;;;;;7.30;2.80;;;;;;;;;;5035587;28;20460;-83
2023/10/04 01:36:58;;;;;;;9.30;2.80;;;;;;;;;;5036778;28;20993;-79
2023/10/04 01:39:30;;;;;;;4.43;3.20;;;;;;;;;;5037219;28;20437;-82
2023/10/04 01:41:56;;;;;;;7.50;4.03;;;;;;;;;;5035360;28;21087;-83
2023/10/04 01:44:23;;;;;;;6.53;2.40;;;;;;;;;;5035612;28;20461;-80
2023/10/04 01:46:49;;;;;;;9.87;2.70;;;;;;;;;;5035060;28;20476;-81
2023/10/04 01:49:15;;;;;;;5.57;2.80;;;;;;;;;;5035895;28;20432;-80
2023/10/04 01:51:42;;;;;;;7.93;2.70;;;;;;;;;;5035118;28;20491;-80
2023/10/04 01:54:09;;;;;;;7.40;2.70;;;;;;;;;;5035344;28;20461;-82
2023/10/04 01:56:38;;;;;;;10.03;2.53;;;;;;;;;;5036035;28;20450;-80
2023/10/04 01:59:04;;;;;;;11.70;3.67;;;;;;;;;;5036772;28;20437;-79
2023/10/04 02:01:31;;;;;;;7.60;2.97;;;;;;;;;;5034842;28;20867;-79
2023/10/04 02:04:00;;;;;;;10.80;3.03;;;;;;;;;;5036452;28;20464;-81
2023/10/04 02:06:28;;;;;;;14.73;3.90;;;;;;;;;;5036362;28;20450;-79
2023/10/04 02:08:55;;;;;;;8.07;3.10;;;;;;;;;;5035933;28;20982;-80
2023/10/04 02:11:22;;;;;;;9.00;3.10;;;;;;;;;;5034519;28;20460;-80
2023/10/04 02:13:50;;;;;;;5.33;2.70;;;;;;;;;;5036039;28;20435;-80
2023/10/04 02:16:18;;;;;;;9.27;3.23;;;;;;;;;;5035622;28;20475;-79
2023/10/04 02:18:44;;;;;;;11.73;3.83;;;;;;;;;;5034824;28;20973;-81
2023/10/04 02:21:11;;;;;;;10.57;2.67;;;;;;;;;;5035646;28;20440;-79
2023/10/04 02:23:38;;;;;;;11.50;4.47;;;;;;;;;;5035840;28;20986;-80
2023/10/04 02:26:06;;;;;;;8.40;3.00;;;;;;;;;;5035798;28;20810;-80
2023/10/04 02:28:33;;;;;;;7.77;3.20;;;;;;;;;;5034889;28;20455;-80
2023/10/04 02:31:02;;;;;;;8.83;3.07;;;;;;;;;;5034640;28;20485;-81
2023/10/04 02:33:32;;;;;;;7.37;2.93;;;;;;;;;;5034581;28;20472;-79
2023/10/04 02:36:00;;;;;;;6.50;2.73;;;;;;;;;;5034559;28;20468;-80
2023/10/04 02:38:27;;;;;;;3.93;2.77;;;;;;;;;;5035741;28;20448;-79
2023/10/04 02:40:55;;;;;;;7.83;3.23;;;;;;;;;;5034999;28;20665;-81
2023/10/04 02:43:22;;;;;;;4.90;3.13;;;;;;;;;;5035871;28;20465;-80
2023/10/04 02:45:49;;;;;;;11.97;3.30;;;;;;;;;;5035046;28;21031;-80
2023/10/04 02:48:17;;;;;;;7.30;3.83;;;;;;;;;;5034514;28;20480;-79
2023/10/04 02:50:44;;;;;;;8.17;3.30;;;;;;;;;;5033803;28;20974;-80
2023/10/04 02:53:13;;;;;;;12.10;2.90;;;;;;;;;;5034301;28;20484;-80
2023/10/04 02:55:39;;;;;;;5.77;2.60;;;;;;;;;;5035187;28;20834;-80
2023/10/04 02:58:07;;;;;;;13.13;3.30;;;;;;;;;;5035432;28;20953;-80
2023/10/04 03:00:34;;;;;;;13.13;3.10;;;;;;;;;;5035293;28;20548;-80
2023/10/04 03:03:01;;;;;;;11.00;2.80;;;;;;;;;;5035286;28;20814;-80
2023/10/04 03:05:31;;;;;;;7.27;3.07;;;;;;;;;;5033002;28;20452;-79
2023/10/04 03:08:03;;;;;;;11.50;3.37;;;;;;;;;;5036278;28;20446;-80
2023/10/04 03:10:33;;;;;;;9.70;3.20;;;;;;;;;;5035061;28;20471;-80
2023/10/04 03:13:01;;;;;;;11.17;2.90;;;;;;;;;;5035416;28;20449;-80
2023/10/04 03:15:28;;;;;;;8.60;2.70;;;;;;;;;;5033872;28;20431;-80
2023/10/04 03:17:54;;;;;;;7.70;3.33;;;;;;;;;;5035455;28;20430;-80
2023/10/04 03:20:24;;;;;;;7.20;3.00;;;;;;;;;;5035050;28;20433;-80
2023/10/04 03:22:54;;;;;;;5.97;2.70;;;;;;;;;;5035253;28;20922;-80
2023/10/04 03:25:24;;;;;;;10.30;2.77;;;;;;;;;;5033437;28;20879;-81
2023/10/04 03:27:50;;;;;;;9.80;3.80;;;;;;;;;;5034057;28;20538;-81
2023/10/04 03:30:17;;;;;;;12.80;2.97;;;;;;;;;;5034284;28;20453;-80
2023/10/04 03:32:44;;;;;;;5.67;2.77;;;;;;;;;;5035097;28;20411;-80
2023/10/04 03:35:14;;;;;;;13.40;3.00;;;;;;;;;;5034728;28;20457;-80
2023/10/04 03:37:48;;;;;;;11.03;3.93;;;;;;;;;;5034721;28;20611;-80
2023/10/04 03:40:17;;;;;;;8.43;2.97;;;;;;;;;;5034801;28;20421;-80
2023/10/04 03:42:44;;;;;;;7.37;3.23;;;;;;;;;;5034734;28;20878;-80
2023/10/04 03:45:11;;;;;;;10.37;4.83;;;;;;;;;;5033958;28;20464;-80
2023/10/04 03:47:39;;;;;;;8.33;3.00;;;;;;;;;;5034417;28;20472;-80
2023/10/04 03:50:06;;;;;;;9.67;2.80;;;;;;;;;;5034079;28;20939;-80
2023/10/04 03:52:33;;;;;;;3.40;2.87;;;;;;;;;;5034724;28;20476;-80
2023/10/04 03:54:59;;;;;;;12.60;3.23;;;;;;;;;;5033266;28;20457;-80
2023/10/04 03:57:28;;;;;;;9.10;4.30;;;;;;;;;;5016760;28;20465;-79
2023/10/04 03:59:57;;;;;;;5.40;2.40;;;;;;;;;;5034101;28;20445;-80
2023/10/04 04:02:24;;;;;;;8.30;3.13;;;;;;;;;;5033885;28;20480;-80
2023/10/04 04:04:50;;;;;;;13.13;3.40;;;;;;;;;;5034523;28;20452;-80
2023/10/04 04:07:16;;;;;;;8.10;3.00;;;;;;;;;;5033760;28;20469;-80
2023/10/04 04:09:43;;;;;;;11.27;2.77;;;;;;;;;;5034195;28;20484;-80
2023/10/04 04:12:09;;;;;;;4.80;2.50;;;;;;;;;;5033577;28;20450;-81
2023/10/04 04:14:37;;;;;;;9.73;3.03;;;;;;;;;;5034079;28;20500;-80
2023/10/04 04:17:05;;;;;;;8.03;3.77;;;;;;;;;;5033678;28;20469;-80
2023/10/04 04:19:31;;;;;;;13.17;2.97;;;;;;;;;;5034093;28;20861;-80
2023/10/04 04:21:57;;;;;;;14.90;3.73;;;;;;;;;;5033434;28;20842;-80
2023/10/04 04:24:27;;;;;;;10.90;3.43;;;;;;;;;;5033683;28;20471;-81
2023/10/04 04:26:58;;;;;;;6.00;2.90;;;;;;;;;;5015243;28;20461;-79
2023/10/04 04:29:24;;;;;;;9.40;3.50;;;;;;;;;;5033584;28;20485;-80
2023/10/04 04:31:52;;;;;;;17.60;3.57;;;;;;;;;;5033465;28;21010;-80
2023/10/04 04:34:19;;;;;;;13.63;3.80;;;;;;;;;;5033702;28;20556;-81
2023/10/04 04:36:46;;;;;;;13.00;3.70;;;;;;;;;;5033185;28;21029;-80
2023/10/04 04:39:18;;;;;;;9.07;3.37;;;;;;;;;;5034609;28;20938;-81
2023/10/04 04:41:45;;;;;;;12.87;3.40;;;;;;;;;;5033379;28;20473;-80
2023/10/04 04:44:19;;;;;;;10.13;3.27;;;;;;;;;;5033259;28;20848;-81
2023/10/04 04:46:47;;;;;;;15.83;4.13;;;;;;;;;;5033246;28;20569;-81
2023/10/04 04:49:15;;;;;;;11.53;3.63;;;;;;;;;;5033128;28;21059;-83
2023/10/04 04:51:41;;;;;;;9.47;2.83;;;;;;;;;;5032040;28;20471;-82
2023/10/04 04:54:08;;;;;;;13.07;2.90;;;;;;;;;;5033327;28;20480;-81
2023/10/04 04:56:35;;;;;;;15.67;3.03;;;;;;;;;;5033517;28;20507;-82
2023/10/04 04:59:07;;;;;;;5.47;2.53;;;;;;;;;;5033595;28;20448;-81
2023/10/04 05:01:34;;;;;;;7.10;3.60;;;;;;;;;;5032965;28;20913;-81
2023/10/04 05:04:00;;;;;;;8.17;2.83;;;;;;;;;;5032114;28;20559;-81
2023/10/04 05:06:30;;;;;;;6.93;3.27;;;;;;;;;;5032911;28;20526;-81
2023/10/04 05:08:57;;;;;;;10.93;2.90;;;;;;;;;;5031877;28;20487;-81
2023/10/04 05:11:23;;;;;;;5.23;2.83;;;;;;;;;;5033042;28;20461;-81
2023/10/04 05:13:51;;;;;;;5.77;2.93;;;;;;;;;;5033356;28;20467;-81
2023/10/04 05:16:17;;;;;;;6.93;3.03;;;;;;;;;;5033155;28;20469;-81
2023/10/04 05:18:44;;;;;;;9.30;2.50;;;;;;;;;;5033814;28;20433;-81
2023/10/04 05:21:12;;;;;;;10.37;2.60;;;;;;;;;;5033755;28;20480;-83
2023/10/04 05:23:39;;;;;;;8.50;3.00;;;;;;;;;;5034243;28;20522;-81
2023/10/04 05:26:08;;;;;;;7.87;2.80;;;;;;;;;;5033488;28;20464;-81
2023/10/04 05:28:35;;;;;;;11.93;3.07;;;;;;;;;;5033998;28;20487;-82
2023/10/04 05:31:02;;;;;;;13.17;2.83;;;;;;;;;;5033498;28;21016;-82
2023/10/04 05:33:30;;;;;;;7.30;2.83;;;;;;;;;;5035099;28;20580;-81
2023/10/04 05:35:57;;;;;;;11.67;3.20;;;;;;;;;;5033034;28;20557;-81
2023/10/04 05:38:26;;;;;;;9.80;2.83;;;;;;;;;;5034194;28;20441;-81
2023/10/04 05:40:54;;;;;;;11.23;3.30;;;;;;;;;;5033545;28;20977;-83
2023/10/04 05:43:20;;;;;;;7.43;2.60;;;;;;;;;;5034023;28;20471;-81
2023/10/04 05:45:47;;;;;;;8.33;3.80;;;;;;;;;;5033628;28;20477;-82
2023/10/04 05:48:15;;;;;;;9.23;3.43;;;;;;;;;;5033772;28;20496;-82
2023/10/04 05:50:42;;;;;;;9.20;3.00;;;;;;;;;;5033549;28;20468;-82
2023/10/04 05:53:08;;;;;;;9.33;3.40;;;;;;;;;;5032246;28;20449;-84
2023/10/04 05:55:35;;;;;;;6.27;3.33;;;;;;;;;;5033269;28;20464;-82
2023/10/04 05:58:07;;;;;;;12.30;3.33;;;;;;;;;;5033917;28;20441;-82
2023/10/04 06:00:34;;;;;;;7.20;3.40;;;;;;;;;;5033616;28;20485;-82
2023/10/04 06:03:04;;;;;;;13.50;4.07;;;;;;;;;;5033325;28;20556;-82
2023/10/04 06:05:33;;;;;;;10.73;3.63;;;;;;;;;;5034114;28;20480;-82
2023/10/04 06:08:00;;;;;;;10.43;3.20;;;;;;;;;;5035352;28;20498;-82
2023/10/04 06:10:27;;;;;;;11.03;3.07;;;;;;;;;;5035706;28;20460;-82
2023/10/04 06:12:54;;;;;;;9.50;2.60;;;;;;;;;;5036927;28;20443;-82
2023/10/04 06:15:24;;;;;;;7.30;3.20;;;;;;;;;;5036448;28;20507;-82
2023/10/04 06:17:51;;;;;;;10.73;3.27;;;;;;;;;;5036286;28;20448;-84
2023/10/04 06:20:24;;;;;;;5.33;2.50;;;;;;;;;;5036635;28;20448;-82
2023/10/04 06:22:51;;;;;;;6.30;3.00;;;;;;;;;;5037092;28;20433;-81
2023/10/04 06:25:18;;;;;;;7.90;2.73;;;;;;;;;;5030944;28;20530;-82
2023/10/04 06:27:44;;;;;;;11.10;3.90;;;;;;;;;;5064244;28;20895;-83
2023/10/04 06:30:12;;;;;;;14.53;3.00;;;;;;;;;;5036571;28;20516;-81
2023/10/04 06:32:39;;;;;;;7.80;3.13;;;;;;;;;;5035678;28;20452;-82
2023/10/04 06:35:08;;;;;;;8.50;3.93;;;;;;;;;;5035007;28;20522;-83
2023/10/04 06:37:34;;;;;;;9.00;3.07;;;;;;;;;;5036769;28;20464;-82
2023/10/04 06:40:01;;;;;;;15.47;4.17;;;;;;;;;;5036429;28;20411;-82
2023/10/04 06:42:27;;;;;;;17.43;3.27;;;;;;;;;;5035966;28;20469;-82
2023/10/04 06:44:54;;;;;;;8.40;2.77;;;;;;;;;;5035531;28;20464;-82
2023/10/04 06:47:21;;;;;;;7.37;3.47;;;;;;;;;;5036418;28;20571;-84
2023/10/04 06:49:49;;;;;;;8.40;3.40;;;;;;;;;;5035815;28;20480;-83
2023/10/04 06:52:15;;;;;;;9.17;3.37;;;;;;;;;;5036096;28;20522;-83
2023/10/04 06:54:42;;;;;;;11.97;3.50;;;;;;;;;;5035923;28;20819;-82
2023/10/04 06:57:09;;;;;;;10.23;3.30;;;;;;;;;;5032746;28;20444;-83
2023/10/04 06:59:35;;;;;;;10.70;3.50;;;;;;;;;;5035777;28;20851;-82
2023/10/04 07:02:02;;;;;;;12.80;3.20;;;;;;;;;;5035280;28;20520;-83
2023/10/04 07:04:29;;;;;;;6.30;2.77;;;;;;;;;;5036059;28;20507;-84
2023/10/04 07:06:57;;;;;;;8.27;3.77;;;;;;;;;;5036341;28;20447;-82
2023/10/04 07:09:24;;;;;;;8.43;3.97;;;;;;;;;;5035380;28;21020;-82
2023/10/04 07:11:50;;;;;;;8.70;3.57;;;;;;;;;;5035996;28;20432;-82
2023/10/04 07:14:16;;;;;;;6.47;3.17;;;;;;;;;;5035640;28;20555;-82
2023/10/04 07:16:43;;;;;;;10.47;3.83;;;;;;;;;;5035689;28;20448;-81
2023/10/04 07:19:09;;;;;;;10.03;3.37;;;;;;;;;;5034016;28;20460;-84
2023/10/04 07:21:37;;;;;;;11.50;3.57;;;;;;;;;;5035854;28;20757;-83
2023/10/04 07:24:06;;;;;;;7.87;2.70;;;;;;;;;;5035170;28;20452;-80
2023/10/04 07:26:35;;;;;;;9.70;3.70;;;;;;;;;;5036559;28;20440;-82
2023/10/04 07:29:02;;;;;;;8.70;4.33;;;;;;;;;;5033924;28;20468;-80
2023/10/04 07:31:31;;;;;;;6.87;3.57;;;;;;;;;;5035790;28;20457;-82
2023/10/04 07:33:57;;;;;;;6.93;3.70;;;;;;;;;;5034820;28;20455;-82
2023/10/04 07:36:23;;;;;;;7.87;3.10;;;;;;;;;;5035870;28;20508;-83
2023/10/04 07:38:50;;;;;;;10.63;3.90;;;;;;;;;;5033726;28;21038;-82
2023/10/04 07:41:18;;;;;;;11.23;3.67;;;;;;;;;;5035451;28;20822;-82
2023/10/04 07:43:44;;;;;;;11.43;3.47;;;;;;;;;;5035225;28;20492;-82
2023/10/04 07:46:10;;;;;;;11.80;3.80;;;;;;;;;;5035541;28;20428;-84
2023/10/04 07:48:37;;;;;;;11.37;4.20;;;;;;;;;;5034785;28;20980;-82
2023/10/04 07:51:06;;;;;;;14.03;4.30;;;;;;;;;;5035500;28;20452;-83
2023/10/04 07:53:33;;;;;;;10.20;3.67;;;;;;;;;;5035320;28;20488;-82
2023/10/04 07:55:59;;;;;;;12.97;3.60;;;;;;;;;;5035708;28;20441;-82
2023/10/04 07:58:27;;;;;;;14.80;3.77;;;;;;;;;;5035086;28;20559;-82
2023/10/04 08:00:53;;;;;;;7.33;3.10;;;;;;;;;;5035027;28;20403;-82
2023/10/04 08:03:20;;;;;;;10.20;3.70;;;;;;;;;;5034453;28;20485;-82
2023/10/04 08:05:46;;;;;;;9.53;3.20;;;;;;;;;;5034954;28;20430;-82
2023/10/04 08:08:13;;;;;;;13.53;4.27;;;;;;;;;;5034649;28;20472;-81
2023/10/04 08:10:40;;;;;;;8.93;3.93;;;;;;;;;;5035041;28;20875;-83
2023/10/04 08:13:06;;;;;;;10.67;3.90;;;;;;;;;;5033449;28;20544;-82
2023/10/04 08:15:35;;;;;;;9.90;3.93;;;;;;;;;;5034897;28;20933;-82
2023/10/04 08:18:04;;;;;;;11.20;3.73;;;;;;;;;;5033279;28;20497;-82
2023/10/04 08:20:32;;;;;;;10.43;3.93;;;;;;;;;;5034702;28;20445;-82
2023/10/04 08:22:59;;;;;;;11.00;5.00;;;;;;;;;;5034695;28;20443;-81
2023/10/04 08:25:27;;;;;;;9.80;3.43;;;;;;;;;;5033764;28;20946;-83
2023/10/04 08:27:54;;;;;;;12.63;4.67;;;;;;;;;;5016920;28;20464;-82
2023/10/04 08:30:20;;;;;;;9.43;3.20;;;;;;;;;;5032450;28;20451;-81
2023/10/04 08:32:49;;;;;;;7.37;3.10;;;;;;;;;;5033053;28;20997;-82
2023/10/04 08:35:24;;;;;;;10.37;3.60;;;;;;;;;;5033421;28;20447;-80
2023/10/04 08:37:53;;;;;;;11.87;4.37;;;;;;;;;;5033385;28;20489;-81
2023/10/04 08:40:19;;;;;;;7.57;3.33;;;;;;;;;;5034433;28;20502;-80
2023/10/04 08:42:46;;;;;;;8.20;3.07;;;;;;;;;;5034555;28;20466;-81
2023/10/04 08:45:13;;;;;;;12.33;3.87;;;;;;;;;;5033651;28;20439;-81
2023/10/04 08:47:39;;;;;;;10.30;4.13;;;;;;;;;;5034408;28;20435;-81
2023/10/04 08:50:11;;;;;;;12.23;3.67;;;;;;;;;;5034437;28;20454;-83
2023/10/04 08:52:41;;;;;;;8.83;3.37;;;;;;;;;;5034296;28;20836;-85
2023/10/04 08:55:13;;;;;;;11.50;4.80;;;;;;;;;;5034883;28;20467;-82
2023/10/04 08:57:40;;;;;;;8.00;3.30;;;;;;;;;;5033802;28;20460;-81
2023/10/04 09:00:13;;;;;;;12.13;4.50;;;;;;;;;;5034436;28;20419;-82
2023/10/04 09:02:40;;;;;;;8.17;3.63;;;;;;;;;;5034089;28;20453;-80
2023/10/04 09:05:10;;;;;;;12.50;4.00;;;;;;;;;;5034614;28;20483;-81
2023/10/04 09:07:36;;;;;;;15.40;4.33;;;;;;;;;;5034471;28;20452;-81
2023/10/04 09:10:05;;;;;;;8.93;4.43;;;;;;;;;;5034465;28;20534;-82
2023/10/04 09:12:32;;;;;;;13.80;4.00;;;;;;;;;;5033873;28;20419;-81
2023/10/04 09:14:58;;;;;;;6.20;3.47;;;;;;;;;;5034190;28;20464;-81
2023/10/04 09:17:26;;;;;;;21.40;4.33;;;;;;;;;;5033828;28;20811;-79
2023/10/04 09:19:53;;;;;;;9.77;4.23;;;;;;;;;;5034399;28;20466;-82
2023/10/04 09:22:29;;;;;;;17.20;4.77;;;;;;;;;;5032402;28;20433;-81
2023/10/04 09:24:57;;;;;;;16.50;5.60;;;;;;;;;;5034605;28;20431;-81
2023/10/04 09:27:23;;;;;;;11.83;4.33;;;;;;;;;;5033685;28;20445;-82
2023/10/04 09:29:50;;;;;;;10.93;4.03;;;;;;;;;;5034285;28;20481;-83
2023/10/04 09:32:17;;;;;;;10.60;4.50;;;;;;;;;;5033333;28;20437;-81
2023/10/04 09:34:55;;;;;;;20.73;5.10;;;;;;;;;;5032537;28;20467;-81
2023/10/04 09:37:23;;;;;;;7.07;3.80;;;;;;;;;;5033362;28;20472;-81
2023/10/04 09:39:49;;;;;;;12.30;4.10;;;;;;;;;;5034244;28;20537;-82
2023/10/04 09:42:16;;;;;;;7.03;4.73;;;;;;;;;;5037256;28;20935;-84
2023/10/04 09:44:43;;;;;;;8.40;3.70;;;;;;;;;;5036722;28;20479;-82
2023/10/04 09:47:09;;;;;;;9.90;4.27;;;;;;;;;;5037406;28;20411;-84
2023/10/04 09:49:37;;;;;;;5.60;3.50;;;;;;;;;;5037097;28;20476;-81
2023/10/04 09:52:06;;;;;;;14.70;4.20;;;;;;;;;;5038578;28;20444;-80
2023/10/04 09:54:35;;;;;;;7.37;3.70;;;;;;;;;;5037296;28;20559;-80
2023/10/04 09:57:06;;;;;;;10.17;4.90;;;;;;;;;;5037851;28;20447;-80
2023/10/04 09:59:34;;;;;;;16.33;4.23;;;;;;;;;;5037495;28;20522;-79
2023/10/04 10:02:01;;;;;;;12.90;4.87;;;;;;;;;;5035902;28;20444;-81
2023/10/04 10:04:28;;;;;;;7.27;3.73;;;;;;;;;;5036031;28;20476;-83
2023/10/04 10:07:06;;;;;;;13.93;4.30;;;;;;;;;;5037075;28;20810;-82
2023/10/04 10:09:35;;;;;;;13.00;5.20;;;;;;;;;;5037063;28;20598;-82
2023/10/04 10:12:02;;;;;;;12.93;4.50;;;;;;;;;;5037557;28;20444;-81
2023/10/04 10:14:29;;;;;;;8.43;4.33;;;;;;;;;;5036475;28;20854;-80
2023/10/04 10:16:56;;;;;;;12.17;4.20;;;;;;;;;;5036070;28;20437;-81
2023/10/04 10:19:23;;;;;;;17.40;5.97;;;;;;;;;;5036206;28;20457;-82
2023/10/04 10:22:11;;;;;;;6.77;3.40;;;;;;;;;;5037380;28;20441;-81
2023/10/04 10:24:45;;;;;;;9.63;4.00;;;;;;;;;;5036975;28;20485;-81
2023/10/04 10:27:13;;;;;;;9.20;3.80;;;;;;;;;;5037663;28;20421;-81
2023/10/04 10:29:41;;;;;;;16.07;4.60;;;;;;;;;;5025281;28;20983;-81
2023/10/04 10:32:13;;;;;;;13.23;4.13;;;;;;;;;;5036391;28;20447;-82
2023/10/04 10:34:40;;;;;;;10.67;4.60;;;;;;;;;;5036774;28;20507;-82
2023/10/04 10:37:12;;;;;;;13.20;5.20;;;;;;;;;;5037160;28;20441;-83
2023/10/04 10:39:46;;;;;;;12.37;4.40;;;;;;;;;;5035543;28;20507;-81
2023/10/04 10:42:14;;;;;;;14.87;4.50;;;;;;;;;;5037076;28;20437;-81
2023/10/04 10:44:40;;;;;;;11.33;4.00;;;;;;;;;;5036260;28;20484;-83
2023/10/04 10:47:08;;;;;;;13.77;4.70;;;;;;;;;;5036738;28;20463;-81
2023/10/04 10:49:39;;;;;;;15.00;5.53;;;;;;;;;;5035966;28;20476;-79
2023/10/04 10:52:07;;;;;;;10.43;5.13;;;;;;;;;;5035879;28;20437;-81
2023/10/04 10:54:36;;;;;;;19.50;4.80;;;;;;;;;;5035525;28;20484;-81
2023/10/04 10:57:05;;;;;;;12.73;4.50;;;;;;;;;;5036681;28;20974;-81
2023/10/04 10:59:32;;;;;;;11.20;4.23;;;;;;;;;;5036666;28;20487;-81
2023/10/04 11:01:59;;;;;;;10.70;5.27;;;;;;;;;;5036564;28;20441;-81
2023/10/04 11:04:25;;;;;;;12.50;5.00;;;;;;;;;;5036788;28;20477;-80
2023/10/04 11:06:52;;;;;;;9.17;4.93;;;;;;;;;;5037221;28;20440;-80
2023/10/04 11:09:20;;;;;;;16.13;4.50;;;;;;;;;;5037675;28;20473;-82
2023/10/04 11:11:47;;;;;;;7.63;5.00;;;;;;;;;;5036370;28;20572;-82
2023/10/04 11:14:16;;;;;;;11.10;4.83;;;;;;;;;;5045580;28;20483;-81
2023/10/04 11:16:42;;;;;;;17.70;6.13;;;;;;;;;;5037213;28;20456;-81
2023/10/04 11:19:10;;;;;;;12.60;3.97;;;;;;;;;;5036203;28;20484;-81
2023/10/04 11:21:37;;;;;;;10.10;4.30;;;;;;;;;;5036035;28;21042;-81
2023/10/04 11:24:05;;;;;;;11.57;5.00;;;;;;;;;;5034949;28;20472;-81
2023/10/04 11:26:31;;;;;;;7.70;3.67;;;;;;;;;;5036069;28;20453;-81
2023/10/04 11:28:58;;;;;;;9.60;4.10;;;;;;;;;;5036156;28;20464;-81
2023/10/04 11:31:27;;;;;;;9.77;3.33;;;;;;;;;;5036459;28;20471;-83
2023/10/04 11:33:55;;;;;;;11.27;5.03;;;;;;;;;;5035899;28;20479;-80
2023/10/04 11:36:22;;;;;;;9.00;4.53;;;;;;;;;;5036303;28;20814;-80
2023/10/04 11:38:49;;;;;;;17.73;4.40;;;;;;;;;;5018161;28;20603;-80
2023/10/04 11:41:16;;;;;;;10.50;4.50;;;;;;;;;;5038740;28;20448;-81
2023/10/04 11:43:44;;;;;;;9.30;4.80;;;;;;;;;;5036262;28;20469;-81
2023/10/04 11:46:10;;;;;;;8.60;4.10;;;;;;;;;;5034331;28;20934;-82
2023/10/04 11:48:38;;;;;;;13.90;4.20;;;;;;;;;;5035699;28;20468;-82
2023/10/04 11:51:04;;;;;;;8.87;4.17;;;;;;;;;;5035794;28;21043;-82
2023/10/04 11:53:31;;;;;;;18.43;5.40;;;;;;;;;;5034079;28;20479;-80
2023/10/04 11:55:58;;;;;;;13.40;4.43;;;;;;;;;;5035835;28;20456;-80
2023/10/04 11:58:27;;;;;;;9.53;4.57;;;;;;;;;;5035078;28;20464;-80
2023/10/04 12:01:04;;;;;;;11.83;5.10;;;;;;;;;;5034685;28;20444;-82
2023/10/04 12:03:31;;;;;;;13.83;4.60;;;;;;;;;;5035473;28;20472;-82
2023/10/04 12:05:59;;;;;;;11.07;4.97;;;;;;;;;;5035893;28;20448;-79
2023/10/04 12:08:28;;;;;;;8.97;4.47;;;;;;;;;;5035306;28;20473;-81
2023/10/04 12:10:55;;;;;;;11.73;4.30;;;;;;;;;;5035556;28;20526;-80
2023/10/04 12:13:22;;;;;;;11.30;4.50;;;;;;;;;;5034569;28;20465;-83
2023/10/04 12:15:48;;;;;;;12.83;5.03;;;;;;;;;;5035617;28;20808;-81
2023/10/04 12:18:15;;;;;;;10.67;4.20;;;;;;;;;;5034517;28;20469;-81
2023/10/04 12:20:42;;;;;;;11.57;4.70;;;;;;;;;;5035115;28;20449;-81
2023/10/04 12:23:11;;;;;;;6.67;3.77;;;;;;;;;;5034224;28;20477;-82
2023/10/04 12:25:37;;;;;;;7.73;4.07;;;;;;;;;;5035835;28;20441;-80
2023/10/04 12:28:07;;;;;;;12.33;4.47;;;;;;;;;;5033928;28;20473;-80
2023/10/04 12:30:34;;;;;;;10.50;4.40;;;;;;;;;;5034859;28;20480;-81
2023/10/04 12:33:00;;;;;;;11.60;4.70;;;;;;;;;;5034585;28;20472;-81
2023/10/04 12:35:28;;;;;;;10.43;3.77;;;;;;;;;;5034938;28;20547;-81
2023/10/04 12:37:54;;;;;;;8.10;4.67;;;;;;;;;;5034857;28;20464;-79
2023/10/04 12:40:24;;;;;;;9.20;4.40;;;;;;;;;;5033971;28;20445;-81
2023/10/04 12:42:51;;;;;;;10.87;5.30;;;;;;;;;;5035173;28;20522;-81
2023/10/04 12:45:17;;;;;;;8.07;3.60;;;;;;;;;;5034371;28;20518;-81
2023/10/04 12:47:45;;;;;;;8.93;4.83;;;;;;;;;;5034492;28;20488;-83
2023/10/04 12:50:15;;;;;;;12.67;4.67;;;;;;;;;;5035035;28;20457;-81
2023/10/04 12:52:41;;;;;;;9.00;4.73;;;;;;;;;;5033134;28;20886;-81
2023/10/04 12:55:08;;;;;;;10.70;4.37;;;;;;;;;;5034499;28;20998;-79
2023/10/04 12:57:37;;;;;;;15.80;4.90;;;;;;;;;;5034145;28;20457;-81
2023/10/04 13:00:13;;;;;;;8.33;4.10;;;;;;;;;;5034766;28;20444;-81
2023/10/04 13:02:41;;;;;;;17.40;5.10;;;;;;;;;;5033929;28;20465;-81
2023/10/04 13:05:10;;;;;;;12.10;5.43;;;;;;;;;;5034406;28;20469;-82
2023/10/04 13:07:37;;;;;;;8.13;4.03;;;;;;;;;;5032758;28;20460;-82
2023/10/04 13:10:09;;;;;;;12.10;4.97;;;;;;;;;;5034647;28;20463;-81
2023/10/04 13:12:37;;;;;;;12.03;4.83;;;;;;;;;;5036477;28;20461;-81
2023/10/04 13:15:06;;;;;;;9.73;5.30;;;;;;;;;;5035084;28;21040;-81
2023/10/04 13:17:32;;;;;;;10.10;4.53;;;;;;;;;;5038716;28;20441;-81
2023/10/04 13:20:00;;;;;;;14.93;5.20;;;;;;;;;;5038484;28;20524;-81
2023/10/04 13:22:28;;;;;;;11.20;4.80;;;;;;;;;;5038130;28;20451;-83
2023/10/04 13:24:54;;;;;;;8.30;4.67;;;;;;;;;;5038301;28;20468;-82
2023/10/04 13:27:21;;;;;;;11.27;4.57;;;;;;;;;;5030302;28;20419;-81
2023/10/04 13:29:49;;;;;;;18.27;5.97;;;;;;;;;;5068594;28;20444;-84
2023/10/04 13:32:18;;;;;;;14.90;4.50;;;;;;;;;;5037513;28;21020;-83
2023/10/04 13:34:45;;;;;;;10.63;5.30;;;;;;;;;;5038460;28;20548;-82
2023/10/04 13:37:11;;;;;;;11.23;5.10;;;;;;;;;;5037259;28;20449;-80
2023/10/04 13:39:38;;;;;;;11.80;4.37;;;;;;;;;;5038428;28;20469;-81
2023/10/04 13:42:05;;;;;;;12.63;5.23;;;;;;;;;;5039129;28;20864;-81
2023/10/04 13:44:32;;;;;;;14.00;5.37;;;;;;;;;;5038022;28;20472;-81
2023/10/04 13:47:00;;;;;;;13.07;6.33;;;;;;;;;;5038449;28;20445;-81
2023/10/04 13:49:28;;;;;;;14.50;5.30;;;;;;;;;;5037662;28;21012;-83
2023/10/04 13:51:57;;;;;;;8.70;5.30;;;;;;;;;;5038842;28;20854;-82
2023/10/04 13:54:25;;;;;;;14.33;6.47;;;;;;;;;;5037858;28;20455;-83
2023/10/04 13:56:53;;;;;;;13.50;5.87;;;;;;;;;;5038418;28;20452;-80
2023/10/04 13:59:19;;;;;;;16.93;4.90;;;;;;;;;;5038515;28;20468;-80
2023/10/04 14:01:47;;;;;;;16.77;6.10;;;;;;;;;;5038334;28;20468;-83
2023/10/04 14:04:16;;;;;;;18.27;5.57;;;;;;;;;;5038081;28;20478;-82
2023/10/04 14:06:43;;;;;;;9.50;4.57;;;;;;;;;;5039422;28;20494;-82
2023/10/04 14:09:11;;;;;;;11.17;5.07;;;;;;;;;;5038153;28;21005;-82
2023/10/04 14:11:38;;;;;;;11.27;4.67;;;;;;;;;;5020872;28;20563;-82
2023/10/04 14:14:07;;;;;;;12.17;4.97;;;;;;;;;;5038146;28;20483;-85
2023/10/04 14:16:33;;;;;;;11.47;4.27;;;;;;;;;;5037427;28;21057;-82
2023/10/04 14:19:00;;;;;;;11.90;4.87;;;;;;;;;;5037610;28;20962;-83
2023/10/04 14:21:28;;;;;;;12.30;5.07;;;;;;;;;;5037436;28;20981;-82
2023/10/04 14:23:55;;;;;;;10.20;4.10;;;;;;;;;;5037226;28;20844;-83
2023/10/04 14:26:21;;;;;;;11.90;5.40;;;;;;;;;;5037438;28;20452;-83
2023/10/04 14:28:48;;;;;;;14.90;5.23;;;;;;;;;;5037016;28;20475;-82
2023/10/04 14:31:14;;;;;;;12.43;4.80;;;;;;;;;;5036155;28;20531;-83
2023/10/04 14:33:41;;;;;;;12.23;4.67;;;;;;;;;;5036538;28;20990;-83
2023/10/04 14:36:07;;;;;;;10.10;4.63;;;;;;;;;;5036986;28;20460;-82
2023/10/04 14:38:35;;;;;;;12.23;4.40;;;;;;;;;;5036610;28;20488;-82